Thunder radar more information blitzortung!


Radar de pluja more information rain snow radar


Visita la nostra xarxa de llocs de meteo:

Template documentation
and downloads

And another site



No particular awareness of the weather is required.    There are no Weather-warnings

Pagina Historial Weather Underground text

Diari Resum Juny 15, 2017 Unitats:  Tant    Imperial   Mètric
« Previous Dia
SegĂźent Dia »
Diari Setmana Mensual Anual Personalitzada
  Maxima: Minima: Media:
Temperatura: 99.5 °F /  37.5 °C 67.3 °F /  19.6 °C 87.3 °F /  30.7 °C
Punt de rosada: 56.1 °F /  13.4 °C 39.7 °F /  4.3 °C 46.6 °F /  8.1 °C
Humitat: 50 % 15 % 26 %
Wind Speed: 12.1 mph /  19.5 km/h - 4.1 mph /  6.6 km/h
RĂ fegues de vent: 12.1 mph /  19.5 km/h - -
Vent:- - South
Pression baro: 30 in /  1015.8 hPa 29.9 in /  1011.7 hPa -
Precipitacions: 0 in /  0.0 mm    
Historical Graphs
 
 
Dades de taula per Juny 15, 2017
Temps Temperatura Punt de rosada Pression baro Vent Wind Speed RĂ fegues de vent Humitat Rainfall Rate (Hourly)
00:04 76.8 °F /  24.9 °C 43 °F /  6.1 °C 29.9 in /  1012.8 hPa Calm     30 % 0 in /  0.0 mm
00:05 68 °F /  20.0 °C 45.9 °F /  7.7 °C 29.9 in /  1011.7 hPa Calm   2 mph /  3.2 km/h 45 % 0 in /  0.0 mm
00:15 68.2 °F /  20.1 °C 46.6 °F /  8.1 °C 29.9 in /  1011.7 hPa Calm     46 % 0 in /  0.0 mm
00:25 68.2 °F /  20.1 °C 47.1 °F /  8.4 °C 29.9 in /  1012.8 hPa Calm     47 % 0 in /  0.0 mm
00:35 68.2 °F /  20.1 °C 47.1 °F /  8.4 °C 29.9 in /  1012.8 hPa Calm     47 % 0 in /  0.0 mm
00:45 68.5 °F /  20.3 °C 47.5 °F /  8.6 °C 29.9 in /  1012.8 hPa WNW 1 mph /  1.6 km/h   47 % 0 in /  0.0 mm
00:55 68.7 °F /  20.4 °C 47.7 °F /  8.7 °C 29.9 in /  1012.8 hPa NW 1 mph /  1.6 km/h 1 mph /  1.6 km/h 47 % 0 in /  0.0 mm
01:05 68.4 °F /  20.2 °C 47.8 °F /  8.8 °C 29.9 in /  1012.8 hPa North 1 mph /  1.6 km/h 2 mph /  3.2 km/h 48 % 0 in /  0.0 mm
01:15 67.8 °F /  19.9 °C 48 °F /  8.9 °C 29.9 in /  1012.8 hPa Calm     49 % 0 in /  0.0 mm
01:25 67.5 °F /  19.7 °C 47.7 °F /  8.7 °C 29.9 in /  1012.8 hPa Calm     49 % 0 in /  0.0 mm
01:35 67.5 °F /  19.7 °C 47.7 °F /  8.7 °C 29.9 in /  1012.8 hPa Calm     49 % 0 in /  0.0 mm
01:45 67.3 °F /  19.6 °C 47.5 °F /  8.6 °C 29.9 in /  1012.8 hPa Calm     49 % 0 in /  0.0 mm
01:55 67.5 °F /  19.7 °C 47.7 °F /  8.7 °C 29.9 in /  1013.8 hPa WNW 1 mph /  1.6 km/h 1 mph /  1.6 km/h 49 % 0 in /  0.0 mm
02:05 67.8 °F /  19.9 °C 48.6 °F /  9.2 °C 29.9 in /  1013.8 hPa Calm   2 mph /  3.2 km/h 50 % 0 in /  0.0 mm
02:15 68 °F /  20.0 °C 48.7 °F /  9.3 °C 29.9 in /  1013.8 hPa Calm   1 mph /  1.6 km/h 50 % 0 in /  0.0 mm
02:25 68.5 °F /  20.3 °C 49.3 °F /  9.6 °C 29.9 in /  1013.8 hPa Calm   2 mph /  3.2 km/h 50 % 0 in /  0.0 mm
02:35 68.7 °F /  20.4 °C 49.3 °F /  9.6 °C 29.9 in /  1013.8 hPa NE 1 mph /  1.6 km/h 3 mph /  4.8 km/h 50 % 0 in /  0.0 mm
02:45 68.9 °F /  20.5 °C 48.9 °F /  9.4 °C 29.9 in /  1013.8 hPa NE 2 mph /  3.2 km/h 2 mph /  3.2 km/h 49 % 0 in /  0.0 mm
02:55 69.1 °F /  20.6 °C 49.1 °F /  9.5 °C 29.9 in /  1013.8 hPa SW 1 mph /  1.6 km/h 2 mph /  3.2 km/h 49 % 0 in /  0.0 mm
03:05 69.6 °F /  20.9 °C 49.6 °F /  9.8 °C 29.9 in /  1013.8 hPa SW 1 mph /  1.6 km/h 2 mph /  3.2 km/h 49 % 0 in /  0.0 mm
03:15 70.7 °F /  21.5 °C 50 °F /  10.0 °C 29.9 in /  1013.8 hPa Calm   2 mph /  3.2 km/h 48 % 0 in /  0.0 mm
03:25 71.4 °F /  21.9 °C 50.2 °F /  10.1 °C 29.9 in /  1012.8 hPa SW 2 mph /  3.2 km/h 2 mph /  3.2 km/h 47 % 0 in /  0.0 mm
03:35 72.5 °F /  22.5 °C 51.1 °F /  10.6 °C 29.9 in /  1013.8 hPa SW 1 mph /  1.6 km/h 1 mph /  1.6 km/h 47 % 0 in /  0.0 mm
03:45 73.4 °F /  23.0 °C 51.4 °F /  10.8 °C 29.9 in /  1013.8 hPa SW 1 mph /  1.6 km/h 2 mph /  3.2 km/h 46 % 0 in /  0.0 mm
03:55 74.3 °F /  23.5 °C 52.2 °F /  11.2 °C 29.9 in /  1013.8 hPa WSW 1 mph /  1.6 km/h 2 mph /  3.2 km/h 46 % 0 in /  0.0 mm
04:05 75.2 °F /  24.0 °C 52.3 °F /  11.3 °C 30 in /  1014.8 hPa SW 1 mph /  1.6 km/h 2 mph /  3.2 km/h 45 % 0 in /  0.0 mm
04:15 76.6 °F /  24.8 °C 53.1 °F /  11.7 °C 30 in /  1014.8 hPa SW 1 mph /  1.6 km/h 2 mph /  3.2 km/h 44 % 0 in /  0.0 mm
04:25 78.1 °F /  25.6 °C 53.8 °F /  12.1 °C 30 in /  1014.8 hPa WSW 1 mph /  1.6 km/h 2 mph /  3.2 km/h 43 % 0 in /  0.0 mm
04:35 80.6 °F /  27.0 °C 54.7 °F /  12.6 °C 30 in /  1014.8 hPa NNW 1 mph /  1.6 km/h 2 mph /  3.2 km/h 41 % 0 in /  0.0 mm
04:45 80.8 °F /  27.1 °C 54.9 °F /  12.7 °C 30 in /  1014.8 hPa WSW 1 mph /  1.6 km/h 1 mph /  1.6 km/h 41 % 0 in /  0.0 mm
04:55 81.7 °F /  27.6 °C 55 °F /  12.8 °C 30 in /  1014.8 hPa South 1 mph /  1.6 km/h 2 mph /  3.2 km/h 40 % 0 in /  0.0 mm
05:05 82.8 °F /  28.2 °C 55.2 °F /  12.9 °C 30 in /  1014.8 hPa South 1 mph /  1.6 km/h 2 mph /  3.2 km/h 39 % 0 in /  0.0 mm
05:15 83.8 °F /  28.8 °C 56.1 °F /  13.4 °C 30 in /  1014.8 hPa SW 1 mph /  1.6 km/h 2 mph /  3.2 km/h 39 % 0 in /  0.0 mm
05:25 84.9 °F /  29.4 °C 55.8 °F /  13.2 °C 30 in /  1014.8 hPa Calm   2 mph /  3.2 km/h 37 % 0 in /  0.0 mm
05:35 85.3 °F /  29.6 °C 55.2 °F /  12.9 °C 29.9 in /  1013.8 hPa SSW 1 mph /  1.6 km/h 4 mph /  6.4 km/h 36 % 0 in /  0.0 mm
05:45 85.5 °F /  29.7 °C 54 °F /  12.2 °C 29.9 in /  1013.8 hPa SSW 2 mph /  3.2 km/h 3 mph /  4.8 km/h 34 % 0 in /  0.0 mm
10:46 86.4 °F /  30.2 °C 54.7 °F /  12.6 °C 29.9 in /  1013.8 hPa SSE 3.5 mph /  5.6 km/h 3.5 mph /  5.6 km/h 34 % 0 in /  0.0 mm
10:51 86.9 °F /  30.5 °C 54.3 °F /  12.4 °C 29.9 in /  1013.8 hPa East 3.5 mph /  5.6 km/h 3.5 mph /  5.6 km/h 33 % 0 in /  0.0 mm
10:56 86.7 °F /  30.4 °C 53.2 °F /  11.8 °C 29.9 in /  1013.8 hPa SE 4.6 mph /  7.4 km/h 4.6 mph /  7.4 km/h 32 % 0 in /  0.0 mm
11:01 86.5 °F /  30.3 °C 54 °F /  12.2 °C 29.9 in /  1013.8 hPa SE 3.8 mph /  6.1 km/h 3.8 mph /  6.1 km/h 33 % 0 in /  0.0 mm
11:06 86.4 °F /  30.2 °C 53.1 °F /  11.7 °C 29.9 in /  1013.8 hPa ESE 4.6 mph /  7.4 km/h 4.6 mph /  7.4 km/h 32 % 0 in /  0.0 mm
11:11 86.5 °F /  30.3 °C 53.2 °F /  11.8 °C 29.9 in /  1013.8 hPa East 3.5 mph /  5.6 km/h 3.5 mph /  5.6 km/h 32 % 0 in /  0.0 mm
11:16 87.3 °F /  30.7 °C 53.8 °F /  12.1 °C 29.9 in /  1013.8 hPa North 1.4 mph /  2.3 km/h 1.4 mph /  2.3 km/h 32 % 0 in /  0.0 mm
11:21 87.4 °F /  30.8 °C 54 °F /  12.2 °C 29.9 in /  1013.8 hPa NNE 2.3 mph /  3.7 km/h 2.3 mph /  3.7 km/h 32 % 0 in /  0.0 mm
11:26 88.2 °F /  31.2 °C 53.8 °F /  12.1 °C 29.9 in /  1013.8 hPa ENE 2.3 mph /  3.7 km/h 2.3 mph /  3.7 km/h 31 % 0 in /  0.0 mm
11:31 88.3 °F /  31.3 °C 53.1 °F /  11.7 °C 30 in /  1014.8 hPa SSE 3.5 mph /  5.6 km/h 3.5 mph /  5.6 km/h 30 % 0 in /  0.0 mm
11:33 88.7 °F /  31.5 °C 53.2 °F /  11.8 °C 30 in /  1014.8 hPa ESE 2.6 mph /  4.2 km/h 2.6 mph /  4.2 km/h 30 % 0 in /  0.0 mm
11:38 89.2 °F /  31.8 °C 52.9 °F /  11.6 °C 30 in /  1014.8 hPa ENE 3.5 mph /  5.6 km/h 3.5 mph /  5.6 km/h 29 % 0 in /  0.0 mm
11:43 88.9 °F /  31.6 °C 52.5 °F /  11.4 °C 30 in /  1014.8 hPa East 3.5 mph /  5.6 km/h 3.5 mph /  5.6 km/h 29 % 0 in /  0.0 mm
11:48 88.5 °F /  31.4 °C 52.2 °F /  11.2 °C 30 in /  1014.8 hPa ESE 5.8 mph /  9.3 km/h 5.8 mph /  9.3 km/h 29 % 0 in /  0.0 mm
11:53 89.2 °F /  31.8 °C 52.9 °F /  11.6 °C 30 in /  1014.8 hPa ESE 2.9 mph /  4.7 km/h 2.9 mph /  4.7 km/h 29 % 0 in /  0.0 mm
11:58 90 °F /  32.2 °C 52.5 °F /  11.4 °C 30 in /  1014.8 hPa NNE 3.5 mph /  5.6 km/h 3.5 mph /  5.6 km/h 28 % 0 in /  0.0 mm
12:03 90.1 °F /  32.3 °C 51.6 °F /  10.9 °C 30 in /  1014.8 hPa NNE 4.6 mph /  7.4 km/h 4.6 mph /  7.4 km/h 27 % 0 in /  0.0 mm
12:08 91 °F /  32.8 °C 52.3 °F /  11.3 °C 30 in /  1014.8 hPa SE 2.4 mph /  3.9 km/h 2.4 mph /  3.9 km/h 27 % 0 in /  0.0 mm
12:13 90.9 °F /  32.7 °C 51.3 °F /  10.7 °C 30 in /  1014.8 hPa SE 4.7 mph /  7.6 km/h 4.7 mph /  7.6 km/h 26 % 0 in /  0.0 mm
12:18 91.2 °F /  32.9 °C 51.4 °F /  10.8 °C 29.9 in /  1013.8 hPa East 2.3 mph /  3.7 km/h 2.3 mph /  3.7 km/h 26 % 0 in /  0.0 mm
12:23 92.1 °F /  33.4 °C 50.2 °F /  10.1 °C 29.9 in /  1013.8 hPa South 4.6 mph /  7.4 km/h 4.6 mph /  7.4 km/h 24 % 0 in /  0.0 mm
12:28 91 °F /  32.8 °C 50.4 °F /  10.2 °C 29.9 in /  1013.8 hPa NNE 5.8 mph /  9.3 km/h 5.8 mph /  9.3 km/h 25 % 0 in /  0.0 mm
12:33 91.8 °F /  33.2 °C 49.8 °F /  9.9 °C 29.9 in /  1013.8 hPa ENE 4.6 mph /  7.4 km/h 4.6 mph /  7.4 km/h 24 % 0 in /  0.0 mm
12:38 91.8 °F /  33.2 °C 49.8 °F /  9.9 °C 29.9 in /  1013.8 hPa ENE 2.3 mph /  3.7 km/h 2.3 mph /  3.7 km/h 24 % 0 in /  0.0 mm
12:43 92.5 °F /  33.6 °C 50.4 °F /  10.2 °C 29.9 in /  1013.8 hPa West 5.8 mph /  9.3 km/h 5.8 mph /  9.3 km/h 24 % 0 in /  0.0 mm
12:48 92.3 °F /  33.5 °C 48 °F /  8.9 °C 29.9 in /  1013.8 hPa East 8.1 mph /  13.0 km/h 8.1 mph /  13.0 km/h 22 % 0 in /  0.0 mm
12:53 92.8 °F /  33.8 °C 48.4 °F /  9.1 °C 29.9 in /  1013.8 hPa East 5.8 mph /  9.3 km/h 5.8 mph /  9.3 km/h 22 % 0 in /  0.0 mm
12:58 93 °F /  33.9 °C 48.6 °F /  9.2 °C 29.9 in /  1013.8 hPa ENE 4.7 mph /  7.6 km/h 4.7 mph /  7.6 km/h 22 % 0 in /  0.0 mm
13:03 92.8 °F /  33.8 °C 48.4 °F /  9.1 °C 29.9 in /  1013.8 hPa ESE 6.9 mph /  11.1 km/h 6.9 mph /  11.1 km/h 22 % 0 in /  0.0 mm
13:08 92.8 °F /  33.8 °C 48.4 °F /  9.1 °C 29.9 in /  1013.8 hPa ENE 5.8 mph /  9.3 km/h 5.8 mph /  9.3 km/h 22 % 0 in /  0.0 mm
13:13 92.8 °F /  33.8 °C 47.1 °F /  8.4 °C 29.9 in /  1013.8 hPa ESE 5.8 mph /  9.3 km/h 5.8 mph /  9.3 km/h 21 % 0 in /  0.0 mm
13:18 92.7 °F /  33.7 °C 46.9 °F /  8.3 °C 29.9 in /  1013.8 hPa ENE 5.8 mph /  9.3 km/h 5.8 mph /  9.3 km/h 21 % 0 in /  0.0 mm
13:23 93.4 °F /  34.1 °C 47.7 °F /  8.7 °C 29.9 in /  1013.8 hPa ENE 6.7 mph /  10.8 km/h 6.7 mph /  10.8 km/h 21 % 0 in /  0.0 mm
13:28 93.6 °F /  34.2 °C 47.8 °F /  8.8 °C 29.9 in /  1013.8 hPa ESE 5.8 mph /  9.3 km/h 5.8 mph /  9.3 km/h 21 % 0 in /  0.0 mm
13:33 93.2 °F /  34.0 °C 46.2 °F /  7.9 °C 29.9 in /  1013.8 hPa ESE 8.1 mph /  13.0 km/h 8.1 mph /  13.0 km/h 20 % 0 in /  0.0 mm
13:38 92.8 °F /  33.8 °C 45.9 °F /  7.7 °C 29.9 in /  1013.8 hPa ESE 8.1 mph /  13.0 km/h 8.1 mph /  13.0 km/h 20 % 0 in /  0.0 mm
13:43 93 °F /  33.9 °C 47.3 °F /  8.5 °C 29.9 in /  1013.8 hPa NNE 9.2 mph /  14.8 km/h 9.2 mph /  14.8 km/h 21 % 0 in /  0.0 mm
13:48 93.6 °F /  34.2 °C 47.8 °F /  8.8 °C 29.9 in /  1013.8 hPa ENE 8.1 mph /  13.0 km/h 8.1 mph /  13.0 km/h 21 % 0 in /  0.0 mm
13:53 93 °F /  33.9 °C 44.8 °F /  7.1 °C 29.9 in /  1013.8 hPa ESE 10.4 mph /  16.7 km/h 10.4 mph /  16.7 km/h 19 % 0 in /  0.0 mm
13:58 93.2 °F /  34.0 °C 46.2 °F /  7.9 °C 29.9 in /  1013.8 hPa NNE 6.9 mph /  11.1 km/h 6.9 mph /  11.1 km/h 20 % 0 in /  0.0 mm
14:03 93.2 °F /  34.0 °C 44.8 °F /  7.1 °C 29.9 in /  1013.8 hPa East 8.7 mph /  14.0 km/h 8.7 mph /  14.0 km/h 19 % 0 in /  0.0 mm
14:08 93.2 °F /  34.0 °C 44.8 °F /  7.1 °C 29.9 in /  1013.8 hPa ESE 9.7 mph /  15.6 km/h 9.7 mph /  15.6 km/h 19 % 0 in /  0.0 mm
14:13 93.6 °F /  34.2 °C 45.1 °F /  7.3 °C 29.9 in /  1013.8 hPa ESE 10.4 mph /  16.7 km/h 10.4 mph /  16.7 km/h 19 % 0 in /  0.0 mm
14:18 93.9 °F /  34.4 °C 44.1 °F /  6.7 °C 29.9 in /  1013.8 hPa ESE 11.5 mph /  18.5 km/h 11.5 mph /  18.5 km/h 18 % 0 in /  0.0 mm
14:23 94.1 °F /  34.5 °C 45.5 °F /  7.5 °C 29.9 in /  1013.8 hPa ESE 7.6 mph /  12.2 km/h 7.6 mph /  12.2 km/h 19 % 0 in /  0.0 mm
14:25 94.1 °F /  34.5 °C 45.5 °F /  7.5 °C 29.9 in /  1013.8 hPa East 8.1 mph /  13.0 km/h 8.1 mph /  13.0 km/h 19 % 0 in /  0.0 mm
14:30 94.6 °F /  34.8 °C 44.6 °F /  7.0 °C 29.9 in /  1013.8 hPa ESE 8.1 mph /  13.0 km/h 8.1 mph /  13.0 km/h 18 % 0 in /  0.0 mm
14:35 94.1 °F /  34.5 °C 44.1 °F /  6.7 °C 29.9 in /  1013.8 hPa ESE 9.2 mph /  14.8 km/h 9.2 mph /  14.8 km/h 18 % 0 in /  0.0 mm
14:40 93.6 °F /  34.2 °C 42.3 °F /  5.7 °C 29.9 in /  1013.8 hPa ENE 8.5 mph /  13.7 km/h 8.5 mph /  13.7 km/h 17 % 0 in /  0.0 mm
14:45 93.9 °F /  34.4 °C 44.1 °F /  6.7 °C 29.9 in /  1013.8 hPa ENE 8.1 mph /  13.0 km/h 8.1 mph /  13.0 km/h 18 % 0 in /  0.0 mm
14:50 94.1 °F /  34.5 °C 42.6 °F /  5.9 °C 29.9 in /  1013.8 hPa SE 8.1 mph /  13.0 km/h 8.1 mph /  13.0 km/h 17 % 0 in /  0.0 mm
14:55 94.1 °F /  34.5 °C 41.2 °F /  5.1 °C 29.9 in /  1013.8 hPa ESE 12.1 mph /  19.5 km/h 12.1 mph /  19.5 km/h 16 % 0 in /  0.0 mm
15:00 94.1 °F /  34.5 °C 42.6 °F /  5.9 °C 29.9 in /  1013.8 hPa East 5.8 mph /  9.3 km/h 5.8 mph /  9.3 km/h 17 % 0 in /  0.0 mm
15:05 93.9 °F /  34.4 °C 40.8 °F /  4.9 °C 29.9 in /  1013.8 hPa ESE 6.9 mph /  11.1 km/h 6.9 mph /  11.1 km/h 16 % 0 in /  0.0 mm
15:10 94.5 °F /  34.7 °C 43 °F /  6.1 °C 29.9 in /  1013.8 hPa NNW 11.5 mph /  18.5 km/h 11.5 mph /  18.5 km/h 17 % 0 in /  0.0 mm
15:15 94.6 °F /  34.8 °C 43.2 °F /  6.2 °C 29.9 in /  1013.8 hPa SE 10.4 mph /  16.7 km/h 10.4 mph /  16.7 km/h 17 % 0 in /  0.0 mm
15:20 95.4 °F /  35.2 °C 40.5 °F /  4.7 °C 29.9 in /  1013.8 hPa SE 5.8 mph /  9.3 km/h 5.8 mph /  9.3 km/h 15 % 0 in /  0.0 mm
15:25 94.5 °F /  34.7 °C 41.4 °F /  5.2 °C 29.9 in /  1013.8 hPa ESE 10.4 mph /  16.7 km/h 10.4 mph /  16.7 km/h 16 % 0 in /  0.0 mm
15:30 94.5 °F /  34.7 °C 41.4 °F /  5.2 °C 29.9 in /  1013.8 hPa East 10.7 mph /  17.2 km/h 10.7 mph /  17.2 km/h 16 % 0 in /  0.0 mm
15:35 94.1 °F /  34.5 °C 41.2 °F /  5.1 °C 29.9 in /  1013.8 hPa South 10.4 mph /  16.7 km/h 10.4 mph /  16.7 km/h 16 % 0 in /  0.0 mm
15:40 94.5 °F /  34.7 °C 39.7 °F /  4.3 °C 29.9 in /  1013.8 hPa ESE 10.4 mph /  16.7 km/h 10.4 mph /  16.7 km/h 15 % 0 in /  0.0 mm
15:45 97 °F /  36.1 °C 45 °F /  7.2 °C 29.9 in /  1013.8 hPa WSW 4 mph /  6.4 km/h 4 mph /  6.4 km/h 17 % 0 in /  0.0 mm
15:50 97.5 °F /  36.4 °C 45.3 °F /  7.4 °C 29.9 in /  1013.8 hPa WSW 3.5 mph /  5.6 km/h 3.5 mph /  5.6 km/h 17 % 0 in /  0.0 mm
15:55 98.8 °F /  37.1 °C 47.8 °F /  8.8 °C 29.9 in /  1013.8 hPa SSW 4.6 mph /  7.4 km/h 4.6 mph /  7.4 km/h 18 % 0 in /  0.0 mm
16:00 99.1 °F /  37.3 °C 46.8 °F /  8.2 °C 29.9 in /  1013.8 hPa West 2.9 mph /  4.7 km/h 2.9 mph /  4.7 km/h 17 % 0 in /  0.0 mm
16:05 98.4 °F /  36.9 °C 46 °F /  7.8 °C 29.9 in /  1013.8 hPa WNW 5.8 mph /  9.3 km/h 5.8 mph /  9.3 km/h 17 % 0 in /  0.0 mm
16:10 99 °F /  37.2 °C 46.6 °F /  8.1 °C 29.9 in /  1013.8 hPa SW 3.5 mph /  5.6 km/h 3.5 mph /  5.6 km/h 17 % 0 in /  0.0 mm
16:15 98.2 °F /  36.8 °C 46 °F /  7.8 °C 29.9 in /  1013.8 hPa SW 8.1 mph /  13.0 km/h 8.1 mph /  13.0 km/h 17 % 0 in /  0.0 mm
16:20 98.1 °F /  36.7 °C 45.9 °F /  7.7 °C 29.9 in /  1013.8 hPa South 5.8 mph /  9.3 km/h 5.8 mph /  9.3 km/h 17 % 0 in /  0.0 mm
16:25 98.6 °F /  37.0 °C 46.2 °F /  7.9 °C 29.9 in /  1013.8 hPa SSE 5.8 mph /  9.3 km/h 5.8 mph /  9.3 km/h 17 % 0 in /  0.0 mm
16:30 98.1 °F /  36.7 °C 44.2 °F /  6.8 °C 29.9 in /  1013.8 hPa SE 5.8 mph /  9.3 km/h 5.8 mph /  9.3 km/h 16 % 0 in /  0.0 mm
16:35 98.8 °F /  37.1 °C 44.8 °F /  7.1 °C 29.9 in /  1013.8 hPa SSE 3.5 mph /  5.6 km/h 3.5 mph /  5.6 km/h 16 % 0 in /  0.0 mm
16:40 99.5 °F /  37.5 °C 45.3 °F /  7.4 °C 29.9 in /  1013.8 hPa South 2.3 mph /  3.7 km/h 2.3 mph /  3.7 km/h 16 % 0 in /  0.0 mm
16:45 99 °F /  37.2 °C 45 °F /  7.2 °C 29.9 in /  1012.8 hPa SSW 4.3 mph /  6.9 km/h 4.3 mph /  6.9 km/h 16 % 0 in /  0.0 mm
16:50 99.1 °F /  37.3 °C 45.1 °F /  7.3 °C 29.9 in /  1012.8 hPa SW 5.8 mph /  9.3 km/h 5.8 mph /  9.3 km/h 16 % 0 in /  0.0 mm
16:55 98.4 °F /  36.9 °C 44.4 °F /  6.9 °C 29.9 in /  1012.8 hPa WSW 7.6 mph /  12.2 km/h 7.6 mph /  12.2 km/h 16 % 0 in /  0.0 mm
17:00 98.8 °F /  37.1 °C 44.8 °F /  7.1 °C 29.9 in /  1013.8 hPa SW 5.8 mph /  9.3 km/h 5.8 mph /  9.3 km/h 16 % 0 in /  0.0 mm
17:05 98.4 °F /  36.9 °C 44.4 °F /  6.9 °C 29.9 in /  1013.8 hPa SSW 3.6 mph /  5.8 km/h 3.6 mph /  5.8 km/h 16 % 0 in /  0.0 mm
17:10 98.8 °F /  37.1 °C 44.8 °F /  7.1 °C 29.9 in /  1013.8 hPa South 4.6 mph /  7.4 km/h 4.6 mph /  7.4 km/h 16 % 0 in /  0.0 mm
17:15 99.5 °F /  37.5 °C 45.3 °F /  7.4 °C 30 in /  1014.8 hPa South 4.6 mph /  7.4 km/h 4.6 mph /  7.4 km/h 16 % 0 in /  0.0 mm
17:20 97.5 °F /  36.4 °C 42.1 °F /  5.6 °C 30 in /  1014.8 hPa SW 5.8 mph /  9.3 km/h 5.8 mph /  9.3 km/h 15 % 0 in /  0.0 mm
17:25 97.5 °F /  36.4 °C 42.1 °F /  5.6 °C 30 in /  1014.8 hPa SSW 3.5 mph /  5.6 km/h 3.5 mph /  5.6 km/h 15 % 0 in /  0.0 mm
17:30 97 °F /  36.1 °C 41.7 °F /  5.4 °C 29.9 in /  1013.8 hPa SW 5.6 mph /  9.0 km/h 5.6 mph /  9.0 km/h 15 % 0 in /  0.0 mm
17:35 96.4 °F /  35.8 °C 41.2 °F /  5.1 °C 29.9 in /  1013.8 hPa South 2.3 mph /  3.7 km/h 2.3 mph /  3.7 km/h 15 % 0 in /  0.0 mm
17:40 96.8 °F /  36.0 °C 41.5 °F /  5.3 °C 29.9 in /  1013.8 hPa SW 5.8 mph /  9.3 km/h 5.8 mph /  9.3 km/h 15 % 0 in /  0.0 mm
17:45 97 °F /  36.1 °C 41.7 °F /  5.4 °C 29.9 in /  1013.8 hPa SSE 5.8 mph /  9.3 km/h 5.8 mph /  9.3 km/h 15 % 0 in /  0.0 mm
17:50 96.4 °F /  35.8 °C 41.2 °F /  5.1 °C 29.9 in /  1013.8 hPa NNE 4.6 mph /  7.4 km/h 4.6 mph /  7.4 km/h 15 % 0 in /  0.0 mm
17:55 96.1 °F /  35.6 °C 41 °F /  5.0 °C 29.9 in /  1013.8 hPa SSE 9.2 mph /  14.8 km/h 9.2 mph /  14.8 km/h 15 % 0 in /  0.0 mm
18:00 96.4 °F /  35.8 °C 43 °F /  6.1 °C 29.9 in /  1012.8 hPa West 5.8 mph /  9.3 km/h 5.8 mph /  9.3 km/h 16 % 0 in /  0.0 mm
18:05 96.4 °F /  35.8 °C 43 °F /  6.1 °C 29.9 in /  1012.8 hPa South 2.4 mph /  3.9 km/h 2.4 mph /  3.9 km/h 16 % 0 in /  0.0 mm
18:07 96.6 °F /  35.9 °C 43.2 °F /  6.2 °C 29.9 in /  1012.8 hPa South 2.9 mph /  4.7 km/h 2.9 mph /  4.7 km/h 16 % 0 in /  0.0 mm
18:12 95.4 °F /  35.2 °C 42.1 °F /  5.6 °C 29.9 in /  1012.8 hPa SW 5.8 mph /  9.3 km/h 5.8 mph /  9.3 km/h 16 % 0 in /  0.0 mm
18:17 94.6 °F /  34.8 °C 43.2 °F /  6.2 °C 29.9 in /  1013.8 hPa SSW 3.5 mph /  5.6 km/h 3.5 mph /  5.6 km/h 17 % 0 in /  0.0 mm
18:22 94.3 °F /  34.6 °C 42.8 °F /  6.0 °C 29.9 in /  1013.8 hPa West 4 mph /  6.4 km/h 4 mph /  6.4 km/h 17 % 0 in /  0.0 mm
18:27 94.5 °F /  34.7 °C 43 °F /  6.1 °C 29.9 in /  1013.8 hPa WSW 6.9 mph /  11.1 km/h 6.9 mph /  11.1 km/h 17 % 0 in /  0.0 mm
18:32 94.1 °F /  34.5 °C 42.6 °F /  5.9 °C 29.9 in /  1013.8 hPa WSW 5.9 mph /  9.5 km/h 5.9 mph /  9.5 km/h 17 % 0 in /  0.0 mm
18:37 93.6 °F /  34.2 °C 42.3 °F /  5.7 °C 29.9 in /  1013.8 hPa SW 5.8 mph /  9.3 km/h 5.8 mph /  9.3 km/h 17 % 0 in /  0.0 mm
18:42 93.6 °F /  34.2 °C 42.3 °F /  5.7 °C 29.9 in /  1013.8 hPa WSW 5.8 mph /  9.3 km/h 5.8 mph /  9.3 km/h 17 % 0 in /  0.0 mm
18:47 93 °F /  33.9 °C 41.7 °F /  5.4 °C 29.9 in /  1013.8 hPa WSW 5.8 mph /  9.3 km/h 5.8 mph /  9.3 km/h 17 % 0 in /  0.0 mm
18:52 92.3 °F /  33.5 °C 41.2 °F /  5.1 °C 29.9 in /  1013.8 hPa West 8.1 mph /  13.0 km/h 8.1 mph /  13.0 km/h 17 % 0 in /  0.0 mm
18:57 91.9 °F /  33.3 °C 40.8 °F /  4.9 °C 29.9 in /  1013.8 hPa WSW 6.9 mph /  11.1 km/h 6.9 mph /  11.1 km/h 17 % 0 in /  0.0 mm
19:02 91.6 °F /  33.1 °C 40.6 °F /  4.8 °C 29.9 in /  1013.8 hPa West 6.9 mph /  11.1 km/h 6.9 mph /  11.1 km/h 17 % 0 in /  0.0 mm
19:07 91.2 °F /  32.9 °C 40.3 °F /  4.6 °C 29.9 in /  1013.8 hPa SW 8.1 mph /  13.0 km/h 8.1 mph /  13.0 km/h 17 % 0 in /  0.0 mm
19:12 90.7 °F /  32.6 °C 41.4 °F /  5.2 °C 29.9 in /  1013.8 hPa SW 8.1 mph /  13.0 km/h 8.1 mph /  13.0 km/h 18 % 0 in /  0.0 mm
19:17 90.5 °F /  32.5 °C 41.2 °F /  5.1 °C 29.9 in /  1013.8 hPa WSW 6.9 mph /  11.1 km/h 6.9 mph /  11.1 km/h 18 % 0 in /  0.0 mm
19:22 90.3 °F /  32.4 °C 41.2 °F /  5.1 °C 29.9 in /  1013.8 hPa West 5.8 mph /  9.3 km/h 5.8 mph /  9.3 km/h 18 % 0 in /  0.0 mm
19:27 90 °F /  32.2 °C 40.8 °F /  4.9 °C 29.9 in /  1013.8 hPa West 4.6 mph /  7.4 km/h 4.6 mph /  7.4 km/h 18 % 0 in /  0.0 mm
19:32 89.8 °F /  32.1 °C 40.6 °F /  4.8 °C 29.9 in /  1013.8 hPa SW 6.9 mph /  11.1 km/h 6.9 mph /  11.1 km/h 18 % 0 in /  0.0 mm
19:37 89.8 °F /  32.1 °C 40.6 °F /  4.8 °C 29.9 in /  1013.8 hPa SW 4.6 mph /  7.4 km/h 4.6 mph /  7.4 km/h 18 % 0 in /  0.0 mm
19:42 89.6 °F /  32.0 °C 40.5 °F /  4.7 °C 29.9 in /  1013.8 hPa WSW 5.8 mph /  9.3 km/h 5.8 mph /  9.3 km/h 18 % 0 in /  0.0 mm
19:47 89.6 °F /  32.0 °C 41.9 °F /  5.5 °C 29.9 in /  1013.8 hPa SW 5.8 mph /  9.3 km/h 5.8 mph /  9.3 km/h 19 % 0 in /  0.0 mm
19:52 89.2 °F /  31.8 °C 43 °F /  6.1 °C 29.9 in /  1013.8 hPa SSW 5.8 mph /  9.3 km/h 5.8 mph /  9.3 km/h 20 % 0 in /  0.0 mm
19:57 88.9 °F /  31.6 °C 43.9 °F /  6.6 °C 29.9 in /  1013.8 hPa SW 5.8 mph /  9.3 km/h 5.8 mph /  9.3 km/h 21 % 0 in /  0.0 mm
20:02 88.5 °F /  31.4 °C 43.5 °F /  6.4 °C 29.9 in /  1013.8 hPa WSW 4.6 mph /  7.4 km/h 4.6 mph /  7.4 km/h 21 % 0 in /  0.0 mm
20:07 88.3 °F /  31.3 °C 44.8 °F /  7.1 °C 29.9 in /  1013.8 hPa SW 3.5 mph /  5.6 km/h 3.5 mph /  5.6 km/h 22 % 0 in /  0.0 mm
20:12 88 °F /  31.1 °C 44.4 °F /  6.9 °C 29.9 in /  1013.8 hPa SW 4.9 mph /  7.9 km/h 4.9 mph /  7.9 km/h 22 % 0 in /  0.0 mm
20:17 87.8 °F /  31.0 °C 44.2 °F /  6.8 °C 29.9 in /  1013.8 hPa SW 4.7 mph /  7.6 km/h 4.7 mph /  7.6 km/h 22 % 0 in /  0.0 mm
20:22 87.6 °F /  30.9 °C 45.1 °F /  7.3 °C 29.9 in /  1013.8 hPa SSW 4.6 mph /  7.4 km/h 4.6 mph /  7.4 km/h 23 % 0 in /  0.0 mm
20:27 87.1 °F /  30.6 °C 44.8 °F /  7.1 °C 29.9 in /  1013.8 hPa WSW 6.9 mph /  11.1 km/h 6.9 mph /  11.1 km/h 23 % 0 in /  0.0 mm
20:32 86.9 °F /  30.5 °C 44.6 °F /  7.0 °C 29.9 in /  1013.8 hPa WSW 3.5 mph /  5.6 km/h 3.5 mph /  5.6 km/h 23 % 0 in /  0.0 mm
20:37 86.5 °F /  30.3 °C 44.2 °F /  6.8 °C 29.9 in /  1013.8 hPa SW 3.6 mph /  5.8 km/h 3.6 mph /  5.8 km/h 23 % 0 in /  0.0 mm
20:42 86.4 °F /  30.2 °C 44.2 °F /  6.8 °C 29.9 in /  1013.8 hPa SSW 5.9 mph /  9.5 km/h 5.9 mph /  9.5 km/h 23 % 0 in /  0.0 mm
20:47 86.2 °F /  30.1 °C 44.1 °F /  6.7 °C 30 in /  1014.8 hPa West 5.8 mph /  9.3 km/h 5.8 mph /  9.3 km/h 23 % 0 in /  0.0 mm
20:52 86 °F /  30.0 °C 45 °F /  7.2 °C 30 in /  1014.8 hPa SW 4.7 mph /  7.6 km/h 4.7 mph /  7.6 km/h 24 % 0 in /  0.0 mm
20:57 85.6 °F /  29.8 °C 44.8 °F /  7.1 °C 30 in /  1014.8 hPa SW 3.5 mph /  5.6 km/h 3.5 mph /  5.6 km/h 24 % 0 in /  0.0 mm
21:02 85.5 °F /  29.7 °C 45.7 °F /  7.6 °C 30 in /  1014.8 hPa SW 3.6 mph /  5.8 km/h 3.6 mph /  5.8 km/h 25 % 0 in /  0.0 mm
21:07 85.1 °F /  29.5 °C 45.3 °F /  7.4 °C 30 in /  1014.8 hPa SW 4.6 mph /  7.4 km/h 4.6 mph /  7.4 km/h 25 % 0 in /  0.0 mm
21:12 84.7 °F /  29.3 °C 45 °F /  7.2 °C 30 in /  1014.8 hPa WSW 4.6 mph /  7.4 km/h 4.6 mph /  7.4 km/h 25 % 0 in /  0.0 mm
21:17 84.6 °F /  29.2 °C 45 °F /  7.2 °C 30 in /  1014.8 hPa SW 2.3 mph /  3.7 km/h 2.3 mph /  3.7 km/h 25 % 0 in /  0.0 mm
21:22 84.4 °F /  29.1 °C 44.8 °F /  7.1 °C 30 in /  1014.8 hPa SW 3.5 mph /  5.6 km/h 3.5 mph /  5.6 km/h 25 % 0 in /  0.0 mm
21:27 84.2 °F /  29.0 °C 45.7 °F /  7.6 °C 30 in /  1014.8 hPa WSW 1.4 mph /  2.3 km/h 1.4 mph /  2.3 km/h 26 % 0 in /  0.0 mm
21:32 84 °F /  28.9 °C 45.3 °F /  7.4 °C 30 in /  1014.8 hPa SW 2.3 mph /  3.7 km/h 2.3 mph /  3.7 km/h 26 % 0 in /  0.0 mm
21:37 83.8 °F /  28.8 °C 46.2 °F /  7.9 °C 30 in /  1014.8 hPa SW 1.2 mph /  1.9 km/h 1.2 mph /  1.9 km/h 27 % 0 in /  0.0 mm
21:42 83.7 °F /  28.7 °C 46 °F /  7.8 °C 30 in /  1014.8 hPa Calm     27 % 0 in /  0.0 mm
21:47 83.5 °F /  28.6 °C 46 °F /  7.8 °C 30 in /  1015.8 hPa Calm     27 % 0 in /  0.0 mm
21:52 83.3 °F /  28.5 °C 45.9 °F /  7.7 °C 30 in /  1015.8 hPa WSW 1.2 mph /  1.9 km/h 1.2 mph /  1.9 km/h 27 % 0 in /  0.0 mm
21:57 83.1 °F /  28.4 °C 46.6 °F /  8.1 °C 30 in /  1015.8 hPa West 1.2 mph /  1.9 km/h   28 % 0 in /  0.0 mm
22:02 83.1 °F /  28.4 °C 46.6 °F /  8.1 °C 30 in /  1015.8 hPa Calm     28 % 0 in /  0.0 mm
22:07 82.9 °F /  28.3 °C 46.6 °F /  8.1 °C 30 in /  1015.8 hPa NE 2.3 mph /  3.7 km/h 2.3 mph /  3.7 km/h 28 % 0 in /  0.0 mm
22:12 82.8 °F /  28.2 °C 46.2 °F /  7.9 °C 30 in /  1015.8 hPa NE 2.3 mph /  3.7 km/h 2.3 mph /  3.7 km/h 28 % 0 in /  0.0 mm
22:17 82.4 °F /  28.0 °C 46 °F /  7.8 °C 30 in /  1015.8 hPa NE 1.4 mph /  2.3 km/h 1.4 mph /  2.3 km/h 28 % 0 in /  0.0 mm
22:22 82.4 °F /  28.0 °C 46 °F /  7.8 °C 30 in /  1015.8 hPa NE 1.2 mph /  1.9 km/h 1.2 mph /  1.9 km/h 28 % 0 in /  0.0 mm
22:27 82.4 °F /  28.0 °C 46 °F /  7.8 °C 30 in /  1015.8 hPa Calm     28 % 0 in /  0.0 mm
22:32 81.3 °F /  27.4 °C 45.1 °F /  7.3 °C 30 in /  1015.8 hPa SW 3.5 mph /  5.6 km/h 3.5 mph /  5.6 km/h 28 % 0 in /  0.0 mm
22:37 80.2 °F /  26.8 °C 45.1 °F /  7.3 °C 30 in /  1015.8 hPa SW 2.3 mph /  3.7 km/h 2.3 mph /  3.7 km/h 29 % 0 in /  0.0 mm
22:42 80.2 °F /  26.8 °C 45.1 °F /  7.3 °C 30 in /  1015.8 hPa SW 2.3 mph /  3.7 km/h 2.3 mph /  3.7 km/h 29 % 0 in /  0.0 mm
22:47 80.2 °F /  26.8 °C 46 °F /  7.8 °C 30 in /  1015.8 hPa SW 2.3 mph /  3.7 km/h 2.3 mph /  3.7 km/h 30 % 0 in /  0.0 mm
22:52 80.2 °F /  26.8 °C 46 °F /  7.8 °C 30 in /  1015.8 hPa SW 1.2 mph /  1.9 km/h   30 % 0 in /  0.0 mm
22:57 80.2 °F /  26.8 °C 46 °F /  7.8 °C 30 in /  1015.8 hPa Calm     30 % 0 in /  0.0 mm
23:02 80.2 °F /  26.8 °C 46.9 °F /  8.3 °C 30 in /  1015.8 hPa Calm     31 % 0 in /  0.0 mm
23:07 80.2 °F /  26.8 °C 46.9 °F /  8.3 °C 30 in /  1015.8 hPa Calm     31 % 0 in /  0.0 mm
23:12 80.4 °F /  26.9 °C 46.9 °F /  8.3 °C 30 in /  1015.8 hPa West 1.4 mph /  2.3 km/h 1.4 mph /  2.3 km/h 31 % 0 in /  0.0 mm
23:17 80.2 °F /  26.8 °C 46.9 °F /  8.3 °C 30 in /  1015.8 hPa Calm     31 % 0 in /  0.0 mm
23:22 80.1 °F /  26.7 °C 46.8 °F /  8.2 °C 30 in /  1015.8 hPa Calm     31 % 0 in /  0.0 mm
23:28 80.1 °F /  26.7 °C 47.5 °F /  8.6 °C 30 in /  1015.8 hPa Calm     32 % 0 in /  0.0 mm
23:33 79.9 °F /  26.6 °C 47.5 °F /  8.6 °C 30 in /  1015.8 hPa West 1.2 mph /  1.9 km/h   32 % 0 in /  0.0 mm
23:38 79.9 °F /  26.6 °C 47.5 °F /  8.6 °C 30 in /  1015.8 hPa SW 2.6 mph /  4.2 km/h 2.6 mph /  4.2 km/h 32 % 0 in /  0.0 mm
23:43 79.3 °F /  26.3 °C 46.9 °F /  8.3 °C 30 in /  1015.8 hPa SW 2.3 mph /  3.7 km/h 2.3 mph /  3.7 km/h 32 % 0 in /  0.0 mm
23:48 79.2 °F /  26.2 °C 46.8 °F /  8.2 °C 30 in /  1015.8 hPa SW 3.5 mph /  5.6 km/h 3.5 mph /  5.6 km/h 32 % 0 in /  0.0 mm
23:53 78.8 °F /  26.0 °C 47.3 °F /  8.5 °C 30 in /  1015.8 hPa SW 2.3 mph /  3.7 km/h 2.3 mph /  3.7 km/h 33 % 0 in /  0.0 mm
23:58 78.8 °F /  26.0 °C 47.3 °F /  8.5 °C 30 in /  1015.8 hPa WSW 2.3 mph /  3.7 km/h 2.3 mph /  3.7 km/h 33 % 0 in /  0.0 mm
Meteo Sesrovires
Elogis d' Weather Underground - 3.5 mb

Guio original per  Jim McMurry - jmcmurry@mwt.net Adaptat per a la plantilla per  Wim van der Kuil - Leuven-Template.eu

Trobareu la nostra informacio del temps tambe a:

Weather Underground

AWEKAS